createdAt,value
2023-04-28T00:01:47.966Z,5.13
2023-04-28T00:04:15.637Z,4.10
2023-04-28T00:06:43.055Z,4.10
2023-04-28T00:09:11.318Z,8.03
2023-04-28T00:11:38.755Z,5.00
2023-04-28T00:14:06.352Z,7.47
2023-04-28T00:16:33.539Z,6.50
2023-04-28T00:19:00.645Z,5.07
2023-04-28T00:21:28.769Z,3.60
2023-04-28T00:23:56.095Z,3.53
2023-04-28T00:26:23.141Z,3.87
2023-04-28T00:28:50.458Z,5.43
2023-04-28T00:31:17.758Z,5.77
2023-04-28T00:33:45.399Z,4.27
2023-04-28T00:36:12.743Z,4.13
2023-04-28T00:38:39.886Z,7.33
2023-04-28T00:41:07.393Z,5.33
2023-04-28T00:43:48.076Z,5.30
2023-04-28T00:46:30.495Z,5.07
2023-04-28T00:48:58.350Z,5.70
2023-04-28T00:51:25.561Z,7.53
2023-04-28T00:53:53.058Z,7.23
2023-04-28T00:56:20.940Z,7.20
2023-04-28T00:58:48.173Z,6.53
2023-04-28T01:01:17.056Z,6.83
2023-04-28T01:03:44.856Z,7.37
2023-04-28T01:06:13.029Z,4.43
2023-04-28T01:08:40.708Z,5.60
2023-04-28T01:11:14.525Z,7.00
2023-04-28T01:14:01.782Z,8.43
2023-04-28T01:16:33.568Z,9.00
2023-04-28T01:19:01.570Z,8.77
2023-04-28T01:21:34.355Z,6.67
2023-04-28T01:24:10.051Z,8.23
2023-04-28T01:26:37.194Z,11.30
2023-04-28T01:29:04.244Z,7.83
2023-04-28T01:31:31.570Z,6.53
2023-04-28T01:33:58.815Z,10.07
2023-04-28T01:36:27.328Z,9.03
2023-04-28T01:38:55.186Z,10.97
2023-04-28T01:41:22.588Z,7.53
2023-04-28T01:43:49.677Z,13.70
2023-04-28T01:46:17.042Z,10.40
2023-04-28T01:48:44.162Z,15.40
2023-04-28T01:51:13.118Z,11.37
2023-04-28T01:53:40.268Z,7.67
2023-04-28T01:56:08.016Z,10.27
2023-04-28T01:58:35.618Z,11.03
2023-04-28T02:01:03.544Z,9.10
2023-04-28T02:03:31.117Z,13.80
2023-04-28T02:05:58.739Z,9.90
2023-04-28T02:08:25.939Z,11.43
2023-04-28T02:10:53.226Z,7.97
2023-04-28T02:13:21.592Z,10.43
2023-04-28T02:15:48.908Z,12.90
2023-04-28T02:18:16.042Z,11.37
2023-04-28T02:20:43.196Z,9.27
2023-04-28T02:23:10.370Z,9.73
2023-04-28T02:25:37.760Z,15.17
2023-04-28T02:28:05.022Z,11.27
2023-04-28T02:30:34.987Z,9.80
2023-04-28T02:33:02.111Z,10.17
2023-04-28T02:35:29.304Z,13.07
2023-04-28T02:37:56.565Z,10.67
2023-04-28T02:40:23.815Z,12.27
2023-04-28T02:42:51.266Z,11.47
2023-04-28T02:45:18.542Z,11.17
2023-04-28T02:47:45.606Z,11.40
2023-04-28T02:50:13.007Z,14.30
2023-04-28T02:52:40.094Z,9.10
2023-04-28T02:55:07.802Z,8.93
2023-04-28T02:57:34.927Z,12.07
2023-04-28T03:00:03.257Z,8.73
2023-04-28T03:02:38.238Z,11.50
2023-04-28T03:05:06.217Z,14.73
2023-04-28T03:07:33.401Z,11.37
2023-04-28T03:10:01.115Z,12.03
2023-04-28T03:12:29.003Z,10.83
2023-04-28T03:14:56.245Z,11.33
2023-04-28T03:17:23.570Z,10.23
2023-04-28T03:19:51.379Z,12.87
2023-04-28T03:22:18.700Z,12.50
2023-04-28T03:24:47.058Z,16.37
2023-04-28T03:27:14.163Z,13.70
2023-04-28T03:29:41.921Z,14.93
2023-04-28T03:32:09.131Z,17.20
2023-04-28T03:34:36.963Z,11.27
2023-04-28T03:37:04.226Z,17.30
2023-04-28T03:39:31.507Z,13.83
2023-04-28T03:41:58.579Z,15.60
2023-04-28T03:44:54.561Z,12.30
2023-04-28T03:47:21.801Z,14.27
2023-04-28T03:49:48.939Z,31.00
2023-04-28T03:52:16.396Z,14.47
2023-04-28T03:54:43.472Z,14.07
2023-04-28T03:57:11.118Z,18.27
2023-04-28T03:59:38.592Z,16.37
2023-04-28T04:02:05.678Z,13.80
2023-04-28T04:04:33.048Z,22.13
2023-04-28T04:07:00.944Z,20.57
2023-04-28T04:09:29.106Z,16.40
2023-04-28T04:11:56.475Z,17.33
2023-04-28T04:14:25.231Z,18.23
2023-04-28T04:16:52.663Z,16.80
2023-04-28T04:19:19.744Z,16.57
2023-04-28T04:21:50.532Z,15.03
2023-04-28T04:24:19.436Z,14.75
2023-04-28T04:26:46.760Z,21.83
2023-04-28T04:29:28.510Z,19.37
2023-04-28T04:31:56.173Z,17.43
2023-04-28T04:34:23.276Z,15.90
2023-04-28T04:36:50.522Z,28.53
2023-04-28T04:39:18.343Z,19.90
2023-04-28T04:41:45.565Z,11.53
2023-04-28T04:44:30.854Z,19.50
2023-04-28T04:47:00.101Z,20.80
2023-04-28T04:49:27.337Z,20.83
2023-04-28T04:51:55.513Z,22.87
2023-04-28T04:54:22.679Z,16.20
2023-04-28T04:56:50.153Z,18.33
2023-04-28T04:59:26.411Z,13.47
2023-04-28T05:02:03.869Z,15.80
2023-04-28T05:04:31.378Z,20.60
2023-04-28T05:06:58.764Z,21.77
2023-04-28T05:09:26.906Z,18.60
2023-04-28T05:11:53.957Z,19.33
2023-04-28T05:14:21.105Z,17.53
2023-04-28T05:16:48.373Z,16.67
2023-04-28T05:19:17.552Z,15.50
2023-04-28T05:21:44.804Z,19.97
2023-04-28T05:24:12.434Z,17.77
2023-04-28T05:26:39.553Z,16.00
2023-04-28T05:29:09.502Z,16.97
2023-04-28T05:31:36.684Z,15.93
2023-04-28T05:34:04.101Z,23.07
2023-04-28T05:36:32.590Z,28.20
2023-04-28T05:39:00.661Z,35.63
2023-04-28T05:41:28.507Z,32.67
2023-04-28T05:43:56.210Z,23.43
2023-04-28T05:46:30.721Z,22.73
2023-04-28T05:49:00.087Z,28.47
2023-04-28T05:51:31.851Z,24.43
2023-04-28T05:53:59.190Z,22.27
2023-04-28T05:56:28.905Z,19.87
2023-04-28T05:58:58.612Z,19.73
2023-04-28T06:01:26.383Z,19.73
2023-04-28T06:03:54.286Z,23.70
2023-04-28T06:06:22.004Z,22.70
2023-04-28T06:08:49.472Z,22.07
2023-04-28T06:11:17.050Z,18.70
2023-04-28T06:13:44.138Z,17.33
2023-04-28T06:16:11.504Z,14.37
2023-04-28T06:18:38.974Z,18.53
2023-04-28T06:21:06.004Z,16.50
2023-04-28T06:23:33.231Z,15.93
2023-04-28T06:26:00.721Z,15.50
2023-04-28T06:28:27.842Z,15.63
2023-04-28T06:30:54.896Z,16.37
2023-04-28T06:33:22.356Z,14.13
2023-04-28T06:35:49.529Z,14.00
2023-04-28T06:38:18.022Z,17.03
2023-04-28T06:40:46.164Z,16.10
2023-04-28T06:43:13.680Z,21.03
2023-04-28T06:45:52.381Z,18.00
2023-04-28T06:48:19.806Z,17.10
2023-04-28T06:50:46.864Z,16.50
2023-04-28T06:53:13.987Z,15.80
2023-04-28T06:55:41.371Z,16.53
2023-04-28T06:58:08.452Z,12.77
2023-04-28T07:00:35.779Z,12.03
2023-04-28T07:03:02.994Z,13.97
2023-04-28T07:05:30.566Z,12.27
2023-04-28T07:07:57.642Z,11.23
2023-04-28T07:10:24.871Z,10.70
2023-04-28T07:12:54.708Z,12.90
2023-04-28T07:15:21.938Z,11.57
2023-04-28T07:17:49.014Z,15.93
2023-04-28T07:20:16.338Z,16.87
2023-04-28T07:22:43.365Z,18.23
2023-04-28T07:25:10.654Z,15.30
2023-04-28T07:27:37.864Z,18.30
2023-04-28T07:30:18.655Z,15.90
2023-04-28T07:32:53.450Z,22.33
2023-04-28T07:35:20.593Z,22.93
2023-04-28T07:37:48.398Z,17.67
2023-04-28T07:40:15.772Z,19.40
2023-04-28T07:42:43.088Z,21.73
2023-04-28T07:45:11.045Z,23.00
2023-04-28T07:47:39.002Z,30.33
2023-04-28T07:50:07.148Z,23.60
2023-04-28T07:52:34.894Z,21.07
2023-04-28T07:55:03.153Z,19.03
2023-04-28T07:57:30.834Z,23.20
2023-04-28T07:59:57.867Z,26.23
2023-04-28T08:02:26.299Z,19.47
2023-04-28T08:04:53.831Z,18.67
2023-04-28T08:07:21.295Z,18.33
2023-04-28T08:09:48.434Z,17.93
2023-04-28T08:12:15.808Z,24.10
2023-04-28T08:14:42.890Z,22.93
2023-04-28T08:17:10.177Z,26.93
2023-04-28T08:19:37.272Z,28.40
2023-04-28T08:22:07.114Z,19.67
2023-04-28T08:24:34.622Z,26.67
2023-04-28T08:27:05.955Z,29.87
2023-04-28T08:29:33.816Z,20.43
2023-04-28T08:32:02.312Z,21.30
2023-04-28T08:34:29.647Z,19.27
2023-04-28T08:36:56.735Z,21.80
2023-04-28T08:39:23.936Z,28.53
2023-04-28T08:41:51.653Z,18.93
2023-04-28T08:44:19.338Z,20.97
2023-04-28T08:46:49.169Z,21.43
2023-04-28T08:49:18.717Z,24.60
2023-04-28T08:51:59.582Z,19.00
2023-04-28T08:54:32.810Z,20.00
2023-04-28T08:57:01.320Z,19.73
2023-04-28T08:59:28.939Z,16.43
2023-04-28T09:01:57.154Z,22.60
2023-04-28T09:04:24.527Z,19.23
2023-04-28T09:06:52.526Z,21.50
2023-04-28T09:09:33.284Z,14.83
2023-04-28T09:12:03.896Z,17.10
2023-04-28T09:14:33.188Z,13.07
2023-04-28T09:17:01.081Z,9.33
2023-04-28T09:19:36.424Z,10.33
2023-04-28T09:22:17.545Z,12.30
2023-04-28T09:24:54.121Z,13.17
2023-04-28T09:27:28.212Z,9.93
2023-04-28T09:29:55.595Z,12.63
2023-04-28T09:32:23.799Z,11.90
2023-04-28T09:34:54.256Z,9.73
2023-04-28T09:37:23.630Z,10.57
2023-04-28T09:39:52.764Z,10.50
2023-04-28T09:42:55.105Z,10.83
2023-04-28T09:45:22.406Z,15.63
2023-04-28T09:47:49.888Z,15.80
2023-04-28T09:50:18.408Z,13.03
2023-04-28T09:52:56.849Z,12.10
2023-04-28T09:55:25.186Z,14.47
2023-04-28T09:57:54.903Z,11.60
2023-04-28T10:00:23.608Z,12.70
2023-04-28T10:02:52.282Z,12.33
2023-04-28T10:05:22.090Z,15.73
2023-04-28T10:07:49.784Z,24.20
2023-04-28T10:10:17.239Z,12.57
2023-04-28T10:12:45.148Z,13.40
2023-04-28T10:15:13.601Z,12.83
2023-04-28T10:17:40.955Z,9.50
2023-04-28T10:20:09.109Z,11.03
2023-04-28T10:23:22.190Z,14.70
2023-04-28T10:25:53.230Z,11.47
2023-04-28T10:28:21.016Z,11.83
2023-04-28T10:31:14.480Z,14.67
2023-04-28T10:33:42.298Z,10.60
2023-04-28T10:36:09.758Z,15.70
2023-04-28T10:39:02.746Z,11.53
2023-04-28T10:41:33.424Z,12.10
2023-04-28T10:44:00.723Z,11.83
2023-04-28T10:46:27.860Z,10.23
2023-04-28T10:48:56.002Z,11.87
2023-04-28T10:51:24.469Z,15.23
2023-04-28T10:54:14.424Z,9.23
2023-04-28T10:57:02.722Z,11.70
2023-04-28T10:59:30.365Z,11.57
2023-04-28T11:02:36.331Z,11.03
2023-04-28T11:05:13.387Z,12.97
2023-04-28T11:07:40.780Z,16.03
2023-04-28T11:10:08.737Z,9.83
2023-04-28T11:12:36.000Z,11.53
2023-04-28T11:15:13.157Z,15.63
2023-04-28T11:17:57.514Z,13.83
2023-04-28T11:20:26.389Z,13.40
2023-04-28T11:22:53.533Z,13.10
2023-04-28T11:25:20.781Z,11.90
2023-04-28T11:27:47.825Z,16.03
2023-04-28T11:30:22.806Z,13.97
2023-04-28T11:32:50.666Z,13.83
2023-04-28T11:35:17.766Z,12.27
2023-04-28T11:37:44.840Z,14.47
2023-04-28T11:40:13.166Z,11.03
2023-04-28T11:42:49.911Z,13.87
2023-04-28T11:45:17.411Z,11.30
2023-04-28T11:47:44.537Z,13.03
2023-04-28T11:50:13.014Z,13.17
2023-04-28T11:52:52.411Z,9.07
2023-04-28T11:55:20.478Z,8.50
2023-04-28T11:57:47.608Z,11.67
2023-04-28T12:00:19.626Z,9.57
2023-04-28T12:02:47.768Z,11.87
2023-04-28T12:05:15.081Z,11.57
2023-04-28T12:07:44.343Z,12.67
2023-04-28T12:10:19.954Z,13.20
2023-04-28T12:12:52.630Z,12.40
2023-04-28T12:15:22.453Z,9.13
2023-04-28T12:17:51.116Z,11.00
2023-04-28T12:20:38.648Z,12.27
2023-04-28T12:23:06.536Z,9.47
2023-04-28T12:25:35.464Z,9.07
2023-04-28T12:28:07.833Z,9.00
2023-04-28T12:30:39.727Z,10.90
2023-04-28T12:33:21.642Z,7.70
2023-04-28T12:35:49.999Z,10.63
2023-04-28T12:38:17.218Z,10.70
2023-04-28T12:40:44.408Z,12.40
2023-04-28T12:43:11.435Z,11.47
2023-04-28T12:45:38.994Z,10.50
2023-04-28T12:48:06.596Z,7.13
2023-04-28T12:50:34.018Z,8.37
2023-04-28T12:53:01.242Z,11.27
2023-04-28T12:55:29.527Z,8.07
2023-04-28T12:57:56.602Z,8.30
2023-04-28T13:00:25.245Z,9.37
2023-04-28T13:02:53.421Z,6.17
2023-04-28T13:05:20.814Z,8.60
2023-04-28T13:07:49.397Z,7.23
2023-04-28T13:10:17.023Z,8.90
2023-04-28T13:12:44.087Z,5.73
2023-04-28T13:15:11.931Z,10.27
2023-04-28T13:17:39.805Z,7.53
2023-04-28T13:20:07.848Z,6.70
2023-04-28T13:22:34.945Z,7.50
2023-04-28T13:25:05.237Z,7.60
2023-04-28T13:27:33.415Z,9.90
2023-04-28T13:30:00.811Z,5.53
2023-04-28T13:32:28.283Z,9.57
2023-04-28T13:34:55.565Z,6.07
2023-04-28T13:37:22.722Z,7.03
2023-04-28T13:39:49.951Z,10.40
2023-04-28T13:42:17.196Z,9.17
2023-04-28T13:44:44.677Z,5.90
2023-04-28T13:47:12.867Z,6.57
2023-04-28T13:49:40.229Z,6.53
2023-04-28T13:52:07.362Z,5.97
2023-04-28T13:54:34.495Z,12.10
2023-04-28T13:57:01.529Z,6.93
2023-04-28T13:59:28.645Z,4.80
2023-04-28T14:01:55.819Z,12.40
2023-04-28T14:04:23.355Z,6.93
2023-04-28T14:06:50.671Z,7.50
2023-04-28T14:09:17.796Z,6.47
2023-04-28T14:11:44.979Z,8.47
2023-04-28T14:14:12.423Z,6.77
2023-04-28T14:16:39.520Z,5.03
2023-04-28T14:19:07.419Z,5.03
2023-04-28T14:21:34.697Z,5.33
2023-04-28T14:24:01.779Z,5.67
2023-04-28T14:26:28.843Z,5.47
2023-04-28T14:28:56.174Z,4.30
2023-04-28T14:31:23.262Z,6.70
2023-04-28T14:33:50.682Z,6.03
2023-04-28T14:36:17.776Z,7.10
2023-04-28T14:38:45.204Z,6.83
2023-04-28T14:41:12.248Z,7.67
2023-04-28T14:43:39.330Z,5.50
2023-04-28T14:46:06.443Z,4.97
2023-04-28T14:48:34.564Z,7.87
2023-04-28T14:51:02.635Z,5.83
2023-04-28T14:53:30.459Z,3.87
2023-04-28T14:56:07.521Z,5.23
2023-04-28T14:58:44.719Z,5.03
2023-04-28T15:01:11.829Z,5.30
2023-04-28T15:03:39.370Z,4.63
2023-04-28T15:06:06.604Z,6.20
2023-04-28T15:08:33.711Z,7.40
2023-04-28T15:11:00.760Z,5.60
2023-04-28T15:13:28.748Z,5.33
2023-04-28T15:15:56.235Z,5.87
2023-04-28T15:18:23.417Z,3.10
2023-04-28T15:20:51.530Z,3.93
2023-04-28T15:23:19.907Z,5.40
2023-04-28T15:25:47.210Z,3.63
2023-04-28T15:28:14.303Z,6.67
2023-04-28T15:30:41.413Z,8.63
2023-04-28T15:33:08.623Z,4.13
2023-04-28T15:35:35.902Z,6.67
2023-04-28T15:38:02.983Z,5.27
2023-04-28T15:40:30.049Z,6.60
2023-04-28T15:42:57.238Z,7.27
2023-04-28T15:45:24.320Z,5.77
2023-04-28T15:47:51.901Z,6.17
2023-04-28T15:50:20.417Z,4.33
2023-04-28T15:52:49.994Z,9.93
2023-04-28T15:55:18.932Z,7.67
2023-04-28T15:57:47.355Z,8.90
2023-04-28T16:00:15.937Z,5.97
2023-04-28T16:02:43.823Z,5.07
2023-04-28T16:05:11.655Z,7.93
2023-04-28T16:07:41.061Z,9.73
2023-04-28T16:10:13.076Z,7.97
2023-04-28T16:12:41.161Z,8.33
2023-04-28T16:15:10.124Z,7.53
2023-04-28T16:17:38.687Z,17.30
2023-04-28T16:20:07.353Z,11.60
2023-04-28T16:22:35.695Z,14.60
2023-04-28T16:25:06.749Z,14.00
2023-04-28T16:27:35.192Z,13.67
2023-04-28T16:30:02.281Z,8.80
2023-04-28T16:32:30.289Z,11.13
2023-04-28T16:34:58.278Z,12.30
2023-04-28T16:37:25.895Z,12.87
2023-04-28T16:39:53.096Z,19.20
2023-04-28T16:42:23.072Z,15.67
2023-04-28T16:44:52.453Z,14.37
2023-04-28T16:47:20.527Z,19.67
2023-04-28T16:49:48.565Z,17.43
2023-04-28T16:52:16.717Z,23.93
2023-04-28T16:54:43.822Z,24.80
2023-04-28T16:57:11.169Z,24.10
2023-04-28T16:59:38.632Z,22.33
2023-04-28T17:02:06.877Z,23.23
2023-04-28T17:04:34.579Z,33.73
2023-04-28T17:07:04.712Z,28.23
2023-04-28T17:09:33.339Z,23.87
2023-04-28T17:12:01.116Z,25.33
2023-04-28T17:14:28.679Z,23.30
2023-04-28T17:16:55.999Z,22.93
2023-04-28T17:19:23.543Z,23.87
2023-04-28T17:21:52.799Z,19.60
2023-04-28T17:24:20.039Z,16.97
2023-04-28T17:26:47.186Z,17.20
2023-04-28T17:29:14.498Z,15.30
2023-04-28T17:31:41.752Z,24.97
2023-04-28T17:34:08.882Z,27.77
2023-04-28T17:36:36.110Z,24.37
2023-04-28T17:39:04.637Z,18.23
2023-04-28T17:41:32.230Z,20.60
2023-04-28T17:43:59.477Z,15.50
2023-04-28T17:46:26.650Z,17.60
2023-04-28T17:48:53.908Z,16.97
2023-04-28T17:51:21.333Z,20.37
2023-04-28T17:53:48.881Z,15.97
2023-04-28T17:56:16.392Z,16.80
2023-04-28T17:58:43.689Z,20.77
2023-04-28T18:01:10.772Z,18.73
2023-04-28T18:03:38.931Z,18.90
2023-04-28T18:06:08.160Z,23.10
2023-04-28T18:08:36.979Z,20.83
2023-04-28T18:11:05.108Z,20.03
2023-04-28T18:13:33.280Z,15.00
2023-04-28T18:16:01.139Z,16.47
2023-04-28T18:18:30.541Z,15.23
2023-04-28T18:20:59.353Z,16.23
2023-04-28T18:23:27.256Z,17.67
2023-04-28T18:25:54.543Z,18.53
2023-04-28T18:28:21.715Z,16.97
2023-04-28T18:30:49.094Z,15.07
2023-04-28T18:33:19.957Z,11.57
2023-04-28T18:35:49.550Z,13.30
2023-04-28T18:38:16.803Z,18.57
2023-04-28T18:40:43.857Z,14.43
2023-04-28T18:43:10.919Z,17.10
2023-04-28T18:45:42.309Z,14.53
2023-04-28T18:48:10.907Z,16.40
2023-04-28T18:50:38.413Z,16.97
2023-04-28T18:53:08.792Z,16.97
2023-04-28T18:55:35.884Z,24.33
2023-04-28T18:58:04.105Z,23.42
2023-04-28T19:00:32.621Z,18.47
2023-04-28T19:03:00.250Z,18.73
2023-04-28T19:05:27.781Z,17.57
2023-04-28T19:07:55.021Z,18.00
2023-04-28T19:10:22.101Z,17.67
2023-04-28T19:12:49.400Z,19.27
2023-04-28T19:15:17.289Z,15.30
2023-04-28T19:17:44.681Z,15.13
2023-04-28T19:20:13.581Z,14.80
2023-04-28T19:22:41.567Z,14.77
2023-04-28T19:25:09.159Z,18.17
2023-04-28T19:27:40.876Z,20.57
2023-04-28T19:30:11.113Z,23.63
2023-04-28T19:32:38.753Z,22.57
2023-04-28T19:35:06.520Z,21.27
2023-04-28T19:37:34.987Z,26.70
2023-04-28T19:40:04.979Z,26.63
2023-04-28T19:42:33.260Z,20.97
2023-04-28T19:45:00.469Z,21.00
2023-04-28T19:47:29.750Z,23.83
2023-04-28T19:49:58.475Z,28.73
2023-04-28T19:52:25.504Z,21.23
2023-04-28T19:54:53.252Z,21.27
2023-04-28T19:57:20.350Z,19.00
2023-04-28T19:59:49.209Z,20.40
2023-04-28T20:02:16.667Z,23.53
2023-04-28T20:04:44.253Z,20.83
2023-04-28T20:07:11.554Z,20.73
2023-04-28T20:09:39.501Z,21.77
2023-04-28T20:12:08.848Z,20.87
2023-04-28T20:14:37.229Z,22.47
2023-04-28T20:17:05.593Z,18.03
2023-04-28T20:19:32.981Z,25.87
2023-04-28T20:22:03.987Z,25.87
2023-04-28T20:24:34.768Z,28.37
2023-04-28T20:27:02.570Z,33.83
2023-04-28T20:29:37.272Z,30.87
2023-04-28T20:32:04.947Z,27.57
2023-04-28T20:34:32.392Z,25.00
2023-04-28T20:37:03.596Z,28.80
2023-04-28T20:39:30.777Z,29.23
2023-04-28T20:41:58.897Z,23.93
2023-04-28T20:44:26.008Z,20.40
2023-04-28T20:46:53.509Z,23.40
2023-04-28T20:49:20.924Z,24.20
2023-04-28T20:51:48.068Z,24.67
2023-04-28T20:54:15.343Z,23.63
2023-04-28T20:56:43.081Z,24.83
2023-04-28T20:59:10.376Z,26.13
2023-04-28T21:01:37.582Z,21.20
2023-04-28T21:04:04.964Z,31.77
2023-04-28T21:06:32.085Z,34.00
2023-04-28T21:08:59.272Z,39.60
2023-04-28T21:11:27.028Z,38.37
2023-04-28T21:13:54.299Z,31.17
2023-04-28T21:16:21.852Z,33.17
2023-04-28T21:18:50.016Z,38.33
2023-04-28T21:21:17.333Z,29.80
2023-04-28T21:23:45.765Z,33.37
2023-04-28T21:26:13.464Z,34.43
2023-04-28T21:28:41.825Z,31.03
2023-04-28T21:31:09.977Z,29.67
2023-04-28T21:33:37.493Z,26.13
2023-04-28T21:36:09.322Z,26.17
2023-04-28T21:38:39.882Z,26.33
2023-04-28T21:41:07.824Z,24.13
2023-04-28T21:43:35.320Z,32.07
2023-04-28T21:46:02.666Z,29.50
2023-04-28T21:48:29.849Z,23.47
2023-04-28T21:50:57.146Z,28.90
2023-04-28T21:53:24.267Z,25.27
2023-04-28T21:55:51.563Z,22.67
2023-04-28T21:58:18.691Z,27.43
2023-04-28T22:00:49.434Z,31.33
2023-04-28T22:03:16.805Z,33.23
2023-04-28T22:05:45.312Z,40.50
2023-04-28T22:08:17.080Z,35.97
2023-04-28T22:10:48.032Z,36.77
2023-04-28T22:13:15.944Z,35.93
2023-04-28T22:15:43.135Z,33.30
2023-04-28T22:18:10.523Z,41.03
2023-04-28T22:20:37.627Z,39.77
2023-04-28T22:23:04.722Z,38.93
2023-04-28T22:25:32.030Z,33.83
2023-04-28T22:27:59.323Z,34.57
2023-04-28T22:30:26.466Z,38.50
2023-04-28T22:32:53.814Z,35.77
2023-04-28T22:35:20.935Z,30.33
2023-04-28T22:37:48.077Z,30.70
2023-04-28T22:40:15.221Z,30.13
2023-04-28T22:42:42.849Z,33.40
2023-04-28T22:45:10.922Z,29.80
2023-04-28T22:47:40.663Z,34.43
2023-04-28T22:50:09.570Z,30.60
2023-04-28T22:52:37.024Z,28.40
2023-04-28T22:55:04.843Z,31.87
2023-04-28T22:57:32.181Z,31.43
2023-04-28T22:59:59.382Z,28.13
2023-04-28T23:02:26.631Z,33.73
2023-04-28T23:04:54.070Z,33.90
2023-04-28T23:07:21.428Z,33.20
2023-04-28T23:09:48.701Z,41.30
2023-04-28T23:12:16.449Z,31.87
2023-04-28T23:14:43.706Z,36.47
2023-04-28T23:17:10.942Z,36.90
2023-04-28T23:19:47.375Z,41.30
2023-04-28T23:22:14.455Z,40.63
2023-04-28T23:24:42.483Z,35.20
2023-04-28T23:27:09.709Z,39.87
2023-04-28T23:29:36.798Z,37.30
2023-04-28T23:32:04.516Z,39.27
2023-04-28T23:34:31.636Z,46.90
2023-04-28T23:36:58.980Z,44.50
2023-04-28T23:39:26.215Z,47.53
2023-04-28T23:41:53.468Z,48.43
2023-04-28T23:44:20.521Z,37.17
2023-04-28T23:46:49.134Z,45.63
2023-04-28T23:49:16.631Z,49.83
2023-04-28T23:51:43.950Z,43.03
2023-04-28T23:54:11.690Z,43.57
2023-04-28T23:56:39.113Z,46.87
2023-04-28T23:59:06.259Z,45.43
